Turecamo Girls — WDC3464 — position and weather

sailwx.info

Track history (hours):
 
Tides and Currents Weather Stations Pressure Air Temp Water Temp Dewpoint Dewpoint Depression Visibility Wind Speed Wind Dir Waves Ship Positions

Turecamo Girls

Owner: Moran Towing Corporation, New Canaan, CT. More information available from US FCC via Universal Licensing System and Coast Guard Vessel Documentation Center.

Last reported at 2017-Sep-24 10:00 UTC. Time now 2017-Sep-24 10:15 UTC.
Position N 40°38' W 074°08'.

Length 30 m; draft 4 m.

Type: Tug. MMSI: 366946710.

Date/timePositionNaut miles runAvg speedWind from/ knotsBaromVisibWave heightAir tempDewpointWater temp
2017-Sep-24 10:00N 40°38' W 074°08'0 0.0
2017-Sep-24 09:30N 40°38' W 074°08'0 0.0
2017-Sep-24 08:45N 40°38' W 074°08'0 0.0
2017-Sep-24 08:18N 40°38' W 074°08'0 0.0
2017-Sep-24 08:00N 40°38' W 074°08'0 0.0
2017-Sep-24 07:30N 40°38' W 074°08'0 0.0
2017-Sep-24 07:00N 40°38' W 074°08'0 0.0
2017-Sep-24 06:30N 40°38' W 074°08'0 0.0
2017-Sep-24 05:15N 40°38' W 074°08'0 0.0
2017-Sep-24 05:00N 40°38' W 074°08'0 0.0
2017-Sep-24 04:27N 40°38' W 074°08'0 0.0
2017-Sep-24 03:51N 40°38' W 074°08'0 0.0
2017-Sep-24 03:24N 40°38' W 074°08'0 0.0
2017-Sep-24 02:57N 40°38' W 074°08'0 0.0
2017-Sep-24 02:15N 40°38' W 074°08'0 0.0
2017-Sep-24 01:57N 40°38' W 074°08'0 0.0
2017-Sep-24 01:27N 40°38' W 074°08'2 4.8
2017-Sep-24 01:00N 40°39' W 074°11'2 3.1
2017-Sep-24 00:29N 40°38' W 074°12'2 3.3
2017-Sep-23 23:59N 40°39' W 074°10'2 0.5
2017-Sep-23 20:06N 40°38' W 074°08'1 6.8
2017-Sep-23 20:00N 40°38' W 074°09'2 0.0
2017-Sep-22 02:00N 40°40' W 074°08'2 3.2
2017-Sep-22 01:30N 40°38' W 074°08'0 0.0
2017-Sep-22 00:39N 40°38' W 074°08'0 0.0
2017-Sep-22 00:30N 40°38' W 074°08'0 0.0
2017-Sep-21 23:57N 40°38' W 074°08'0 0.0
2017-Sep-21 23:27N 40°38' W 074°08'0 0.0
2017-Sep-21 23:00N 40°38' W 074°08'0 0.0
2017-Sep-21 22:27N 40°38' W 074°08'0 0.0
2017-Sep-21 21:57N 40°38' W 074°08'0 0.0
2017-Sep-21 21:27N 40°38' W 074°08'0 0.0
2017-Sep-21 21:00N 40°38' W 074°08'0 0.0
2017-Sep-21 20:30N 40°38' W 074°08'0 0.0
2017-Sep-21 19:48N 40°38' W 074°08'0 0.0
2017-Sep-21 19:30N 40°38' W 074°08'0 0.0
2017-Sep-21 18:51N 40°38' W 074°08'0 0.0
2017-Sep-21 18:27N 40°38' W 074°08'0 0.0
2017-Sep-21 18:00N 40°38' W 074°08'0 0.0
2017-Sep-21 17:27N 40°38' W 074°08'0 0.0
2017-Sep-21 15:44N 40°38' W 074°08'2 7.9
2017-Sep-21 15:30N 40°39' W 074°10'2 3.1
2017-Sep-21 14:53N 40°38' W 074°12'2 4.7
2017-Sep-21 14:29N 40°39' W 074°10'2 0.5
2017-Sep-21 10:43N 40°38' W 074°08'0 0.0
2017-Sep-21 10:25N 40°38' W 074°08'0 0.0
2017-Sep-21 09:49N 40°38' W 074°08'0 0.0
2017-Sep-21 04:55N 40°38' W 074°08'0 0.0
2017-Sep-21 04:28N 40°38' W 074°08'0 0.0
2017-Sep-21 01:25N 40°38' W 074°08'0 0.0
2017-Sep-21 00:55N 40°38' W 074°08'0 0.0
2017-Sep-21 00:25N 40°38' W 074°08'0 0.0
2017-Sep-20 23:49N 40°38' W 074°08'0 0.2
2017-Sep-20 23:30N 40°38' W 074°08'1 0.4
2017-Sep-20 20:56N 40°39' W 074°07'4 8.8
2017-Sep-20 20:30N 40°41' W 074°02'612.4
2017-Sep-20 20:00N 40°47' W 073°60'8 6.2
2017-Sep-20 18:39N 40°55' W 073°55'1 8.1
2017-Sep-20 18:29N 40°53' W 073°56'4 7.6
2017-Sep-20 18:00N 40°50' W 073°58'4 7.2
2017-Sep-20 17:30N 40°47' W 073°60'4 7.6
2017-Sep-20 17:00N 40°43' W 074°01'4 7.9
2017-Sep-20 16:31N 40°40' W 074°03'3 6.5
2017-Sep-20 15:58N 40°38' W 074°08'0 0.0
2017-Sep-20 15:28N 40°38' W 074°08'0 0.0
2017-Sep-20 14:58N 40°38' W 074°08'0 0.0
2017-Sep-20 13:55N 40°38' W 074°08'0 0.0
2017-Sep-20 13:25N 40°38' W 074°08'0 0.0
2017-Sep-20 12:58N 40°38' W 074°08'0 0.9
2017-Sep-20 12:31N 40°39' W 074°07'1 1.2
2017-Sep-20 11:47N 40°39' W 074°06'1 3.5
2017-Sep-20 11:25N 40°38' W 074°08'0 0.0
2017-Sep-20 10:52N 40°38' W 074°08'0 0.0
2017-Sep-20 10:28N 40°38' W 074°08'0 0.0
2017-Sep-20 09:52N 40°38' W 074°08'0 0.0
2017-Sep-20 09:28N 40°38' W 074°08'2 3.9
2017-Sep-20 09:00N 40°39' W 074°05'0 0.0
2017-Sep-20 08:28N 40°39' W 074°05'2 3.9
2017-Sep-20 08:00N 40°38' W 074°08'0 0.0
2017-Sep-20 07:30N 40°38' W 074°08'0 0.0
2017-Sep-20 07:00N 40°38' W 074°08'0 0.0
2017-Sep-20 06:30N 40°38' W 074°08'0 0.0
2017-Sep-20 06:00N 40°38' W 074°08'0 0.0
2017-Sep-20 05:30N 40°38' W 074°08'0 0.0
2017-Sep-20 05:00N 40°38' W 074°08'0 0.0
2017-Sep-20 04:30N 40°38' W 074°08'0 0.0
2017-Sep-20 03:57N 40°38' W 074°08'0 0.0
2017-Sep-20 03:30N 40°38' W 074°08'0 0.0
2017-Sep-20 03:00N 40°38' W 074°08'0 0.0
2017-Sep-20 02:30N 40°38' W 074°08'0 0.0
2017-Sep-20 02:00N 40°38' W 074°08'6 1.3
2017-Sep-19 21:45N 40°34' W 074°13'210.0
2017-Sep-19 21:30N 40°37' W 074°12'4 7.5
2017-Sep-19 21:00N 40°39' W 074°08'4 8.1
2017-Sep-19 20:30N 40°40' W 074°03'510.8
2017-Sep-19 20:00N 40°44' W 073°58'2 3.3
2017-Sep-19 19:28N 40°46' W 073°57'0 0.0
2017-Sep-19 18:55N 40°46' W 073°57'0 0.0
2017-Sep-19 18:28N 40°46' W 073°57'0 0.0
2017-Sep-19 17:58N 40°46' W 073°57'0 0.0
2017-Sep-19 17:28N 40°46' W 073°57'0 0.0
2017-Sep-19 16:55N 40°46' W 073°57'0 0.0
2017-Sep-19 16:28N 40°46' W 073°57'0 0.0
2017-Sep-19 15:58N 40°46' W 073°57'0 0.0
2017-Sep-19 15:28N 40°46' W 073°57'0 0.0
2017-Sep-19 14:49N 40°46' W 073°57'0 0.0
2017-Sep-19 14:28N 40°46' W 073°57'0 0.0
2017-Sep-19 13:58N 40°46' W 073°57'0 0.0
2017-Sep-19 13:28N 40°46' W 073°57'0 0.0
2017-Sep-19 12:46N 40°46' W 073°57'1 2.9
2017-Sep-19 12:30N 40°45' W 073°58'611.7
2017-Sep-19 12:00N 40°40' W 074°02'5 3.3
2017-Sep-19 10:35N 40°38' W 074°08'0 0.0
2017-Sep-19 08:53N 40°38' W 074°08'0 0.0
2017-Sep-19 08:29N 40°38' W 074°08'0 0.0
2017-Sep-19 07:47N 40°38' W 074°08'0 0.0
2017-Sep-19 07:29N 40°38' W 074°08'0 0.0
2017-Sep-19 06:41N 40°38' W 074°08'0 0.0
2017-Sep-19 06:17N 40°38' W 074°08'0 0.0
2017-Sep-19 05:56N 40°38' W 074°08'0 0.0
2017-Sep-19 03:29N 40°38' W 074°08'4 8.9
2017-Sep-19 03:00N 40°40' W 074°03'611.3
2017-Sep-19 02:30N 40°46' W 074°00'0 0.7
2017-Sep-19 01:57N 40°46' W 073°60'0 1.0
2017-Sep-19 01:30N 40°46' W 074°00'1 2.9
2017-Sep-19 00:59N 40°44' W 074°01'0 0.2
2017-Sep-19 00:30N 40°44' W 074°01'0 0.0
2017-Sep-19 00:00N 40°44' W 074°01'2 3.4
2017-Sep-18 23:31N 40°43' W 074°01'510.5
2017-Sep-18 22:59N 40°39' W 074°06'1 2.3
2017-Sep-18 22:28N 40°38' W 074°08'0 0.0
2017-Sep-18 21:18N 40°38' W 074°08'3 3.6
2017-Sep-18 20:29N 40°41' W 074°08'0 0.2
2017-Sep-18 19:57N 40°41' W 074°08'3 5.5
2017-Sep-18 19:28N 40°39' W 074°09'1 2.0
2017-Sep-18 18:59N 40°38' W 074°08'0 0.0
2017-Sep-18 18:17N 40°38' W 074°08'0 0.0
2017-Sep-18 17:59N 40°38' W 074°08'1 2.3
2017-Sep-18 17:30N 40°39' W 074°07'0 0.4
2017-Sep-18 17:00N 40°39' W 074°06'0 0.2
2017-Sep-18 16:30N 40°39' W 074°06'1 1.8
2017-Sep-18 15:50N 40°38' W 074°08'0 0.0
2017-Sep-18 15:26N 40°38' W 074°08'0 0.0
2017-Sep-18 14:53N 40°38' W 074°08'0 0.0
2017-Sep-18 14:14N 40°38' W 074°08'0 0.0
2017-Sep-18 13:55N 40°38' W 074°08'0 0.0
2017-Sep-18 13:25N 40°38' W 074°08'4 2.1
2017-Sep-18 11:29N 40°36' W 074°12'2 4.9
2017-Sep-18 11:00N 40°38' W 074°12'3 5.9
2017-Sep-18 10:30N 40°39' W 074°08'3 5.9
2017-Sep-18 09:59N 40°38' W 074°12'3 1.8
2017-Sep-18 08:17N 40°35' W 074°12'1 3.7
2017-Sep-18 08:00N 40°36' W 074°12'0 0.1
2017-Sep-18 07:26N 40°37' W 074°12'3 0.2
2017-Sep-17 18:26N 40°34' W 074°13'4 4.7
2017-Sep-17 17:38N 40°38' W 074°12'1 7.1
2017-Sep-17 17:30N 40°38' W 074°12'3 0.1
2017-Sep-16 21:11N 40°38' W 074°08'0 0.0
2017-Sep-16 20:53N 40°38' W 074°08'0 0.0
2017-Sep-16 16:59N 40°38' W 074°08'0 0.0
2017-Sep-16 16:23N 40°38' W 074°08'0 0.0
2017-Sep-16 15:53N 40°38' W 074°08'0 0.0
2017-Sep-16 15:29N 40°38' W 074°08'0 0.0
2017-Sep-16 14:53N 40°38' W 074°08'0 0.0
2017-Sep-16 14:29N 40°38' W 074°08'0 0.0
2017-Sep-16 13:59N 40°38' W 074°08'0 0.0
2017-Sep-16 13:29N 40°38' W 074°08'0 0.0
2017-Sep-16 12:59N 40°38' W 074°08'0 0.0
2017-Sep-16 12:11N 40°38' W 074°08'0 0.0
2017-Sep-16 11:44N 40°38' W 074°08'0 0.0
2017-Sep-16 11:29N 40°38' W 074°08'0 0.0
2017-Sep-16 10:59N 40°38' W 074°08'0 0.0
2017-Sep-16 10:29N 40°38' W 074°08'0 0.0
2017-Sep-16 09:47N 40°38' W 074°08'2 7.0
2017-Sep-16 09:30N 40°39' W 074°05'0 0.5
2017-Sep-16 08:58N 40°39' W 074°05'2 3.9
2017-Sep-16 08:31N 40°40' W 074°03'0 0.9
2017-Sep-16 08:00N 40°40' W 074°02'0 0.0
2017-Sep-16 07:30N 40°40' W 074°02'0 0.1
2017-Sep-16 07:00N 40°40' W 074°02'0 0.1
2017-Sep-16 06:30N 40°40' W 074°02'0 0.1
2017-Sep-16 06:00N 40°40' W 074°02'0 0.3
2017-Sep-16 05:29N 40°40' W 074°03'1 2.9
2017-Sep-16 05:00N 40°39' W 074°04'4 8.6
2017-Sep-16 04:30N 40°39' W 074°10'4 1.4
2017-Sep-16 01:56N 40°36' W 074°12'4 8.4
2017-Sep-16 01:31N 40°39' W 074°10'5 9.7
2017-Sep-16 01:00N 40°39' W 074°04'1 2.4
2017-Sep-16 00:28N 40°40' W 074°02'1 2.0
2017-Sep-15 23:56N 40°39' W 074°03'2 5.4
2017-Sep-15 23:30N 40°39' W 074°06'4 8.8
2017-Sep-15 22:59N 40°38' W 074°12'1 1.3
2017-Sep-15 22:28N 40°38' W 074°12'0 0.1
2017-Sep-15 21:54N 40°38' W 074°12'0 0.3
2017-Sep-15 21:10N 40°38' W 074°12'0 0.0
2017-Sep-15 20:58N 40°38' W 074°12'2 4.6
2017-Sep-15 20:30N 40°39' W 074°10'2 2.9
2017-Sep-15 19:58N 40°38' W 074°08'0 0.0
2017-Sep-15 19:13N 40°38' W 074°08'0 0.0
2017-Sep-15 17:25N 40°38' W 074°08'0 0.0
2017-Sep-15 15:10N 40°38' W 074°08'0 0.0
2017-Sep-15 14:58N 40°38' W 074°08'0 0.0
2017-Sep-15 13:58N 40°38' W 074°08'0 0.0
2017-Sep-15 12:22N 40°38' W 074°08'0 0.0
2017-Sep-15 11:58N 40°38' W 074°08'0 0.0
2017-Sep-15 11:28N 40°38' W 074°08'0 0.0
2017-Sep-15 10:58N 40°38' W 074°08'0 0.0
2017-Sep-15 10:28N 40°38' W 074°08'0 0.0
2017-Sep-15 09:49N 40°38' W 074°08'0 0.0
2017-Sep-15 09:07N 40°38' W 074°08'0 0.0
2017-Sep-15 08:58N 40°38' W 074°08'0 0.0
2017-Sep-15 08:28N 40°38' W 074°08'0 0.0
2017-Sep-15 07:58N 40°38' W 074°08'0 0.0
2017-Sep-15 06:01N 40°38' W 074°08'0 0.1
2017-Sep-15 05:58N 40°38' W 074°08'0 0.0
2017-Sep-15 05:25N 40°38' W 074°08'0 0.0
2017-Sep-15 04:55N 40°38' W 074°08'0 0.0
2017-Sep-15 03:49N 40°38' W 074°08'0 0.1
2017-Sep-15 03:29N 40°38' W 074°08'4 7.9
2017-Sep-15 03:00N 40°42' W 074°07'1 1.1
2017-Sep-15 02:28N 40°43' W 074°07'0 0.1
2017-Sep-15 01:58N 40°43' W 074°07'1 2.9
2017-Sep-15 01:31N 40°41' W 074°08'5 9.5
2017-Sep-15 01:01N 40°38' W 074°12'4 1.6
2017-Sep-14 22:39N 40°34' W 074°13'1 6.6
2017-Sep-14 22:30N 40°35' W 074°12'3 6.2
2017-Sep-14 22:00N 40°38' W 074°12'4 7.8
2017-Sep-14 21:30N 40°39' W 074°06'0 0.5
2017-Sep-14 20:45N 40°39' W 074°06'1 0.4
2017-Sep-14 17:20N 40°38' W 074°08'0 0.0
2017-Sep-14 16:59N 40°38' W 074°08'0 0.0
2017-Sep-14 16:20N 40°38' W 074°08'0 0.0
2017-Sep-14 12:57N 40°38' W 074°08'3 7.0
2017-Sep-14 12:30N 40°38' W 074°04'1 1.5
2017-Sep-14 11:39N 40°37' W 074°03'0 0.9
2017-Sep-14 11:29N 40°37' W 074°03'1 1.5
2017-Sep-14 11:01N 40°37' W 074°03'2 3.1
2017-Sep-14 10:30N 40°39' W 074°03'  
Track history (hours):
 
Tides and Currents Weather Stations Pressure Air Temp Water Temp Dewpoint Dewpoint Depression Visibility Wind Speed Wind Dir Waves Ship Positions

Turecamo Girls

Owner: Moran Towing Corporation, New Canaan, CT. More information available from US FCC via Universal Licensing System and Coast Guard Vessel Documentation Center.

Last reported at 2017-Sep-24 10:00 UTC. Time now 2017-Sep-24 10:15 UTC.
Position N 40°38' W 074°08'.

Length 30 m; draft 4 m.

Type: Tug. MMSI: 366946710.

Date/timePositionNaut miles runAvg speedWind from/ knotsBaromVisibWave heightAir tempDewpointWater temp
2017-Sep-24 10:00N 40°38' W 074°08'0 0.0
2017-Sep-24 09:30N 40°38' W 074°08'0 0.0
2017-Sep-24 08:45N 40°38' W 074°08'0 0.0
2017-Sep-24 08:18N 40°38' W 074°08'0 0.0
2017-Sep-24 08:00N 40°38' W 074°08'0 0.0
2017-Sep-24 07:30N 40°38' W 074°08'0 0.0
2017-Sep-24 07:00N 40°38' W 074°08'0 0.0
2017-Sep-24 06:30N 40°38' W 074°08'0 0.0
2017-Sep-24 05:15N 40°38' W 074°08'0 0.0
2017-Sep-24 05:00N 40°38' W 074°08'0 0.0
2017-Sep-24 04:27N 40°38' W 074°08'0 0.0
2017-Sep-24 03:51N 40°38' W 074°08'0 0.0
2017-Sep-24 03:24N 40°38' W 074°08'0 0.0
2017-Sep-24 02:57N 40°38' W 074°08'0 0.0
2017-Sep-24 02:15N 40°38' W 074°08'0 0.0
2017-Sep-24 01:57N 40°38' W 074°08'0 0.0
2017-Sep-24 01:27N 40°38' W 074°08'2 4.8
2017-Sep-24 01:00N 40°39' W 074°11'2 3.1
2017-Sep-24 00:29N 40°38' W 074°12'2 3.3
2017-Sep-23 23:59N 40°39' W 074°10'2 0.5
2017-Sep-23 20:06N 40°38' W 074°08'1 6.8
2017-Sep-23 20:00N 40°38' W 074°09'2 0.0
2017-Sep-22 02:00N 40°40' W 074°08'2 3.2
2017-Sep-22 01:30N 40°38' W 074°08'0 0.0
2017-Sep-22 00:39N 40°38' W 074°08'0 0.0
2017-Sep-22 00:30N 40°38' W 074°08'0 0.0
2017-Sep-21 23:57N 40°38' W 074°08'0 0.0
2017-Sep-21 23:27N 40°38' W 074°08'0 0.0
2017-Sep-21 23:00N 40°38' W 074°08'0 0.0
2017-Sep-21 22:27N 40°38' W 074°08'0 0.0
2017-Sep-21 21:57N 40°38' W 074°08'0 0.0
2017-Sep-21 21:27N 40°38' W 074°08'0 0.0
2017-Sep-21 21:00N 40°38' W 074°08'0 0.0
2017-Sep-21 20:30N 40°38' W 074°08'0 0.0
2017-Sep-21 19:48N 40°38' W 074°08'0 0.0
2017-Sep-21 19:30N 40°38' W 074°08'0 0.0
2017-Sep-21 18:51N 40°38' W 074°08'0 0.0
2017-Sep-21 18:27N 40°38' W 074°08'0 0.0
2017-Sep-21 18:00N 40°38' W 074°08'0 0.0
2017-Sep-21 17:27N 40°38' W 074°08'0 0.0
2017-Sep-21 15:44N 40°38' W 074°08'2 7.9
2017-Sep-21 15:30N 40°39' W 074°10'2 3.1
2017-Sep-21 14:53N 40°38' W 074°12'2 4.7
2017-Sep-21 14:29N 40°39' W 074°10'2 0.5
2017-Sep-21 10:43N 40°38' W 074°08'0 0.0
2017-Sep-21 10:25N 40°38' W 074°08'0 0.0
2017-Sep-21 09:49N 40°38' W 074°08'0 0.0
2017-Sep-21 04:55N 40°38' W 074°08'0 0.0
2017-Sep-21 04:28N 40°38' W 074°08'0 0.0
2017-Sep-21 01:25N 40°38' W 074°08'0 0.0
2017-Sep-21 00:55N 40°38' W 074°08'0 0.0
2017-Sep-21 00:25N 40°38' W 074°08'0 0.0
2017-Sep-20 23:49N 40°38' W 074°08'0 0.2
2017-Sep-20 23:30N 40°38' W 074°08'1 0.4
2017-Sep-20 20:56N 40°39' W 074°07'4 8.8
2017-Sep-20 20:30N 40°41' W 074°02'612.4
2017-Sep-20 20:00N 40°47' W 073°60'8 6.2
2017-Sep-20 18:39N 40°55' W 073°55'1 8.1
2017-Sep-20 18:29N 40°53' W 073°56'4 7.6
2017-Sep-20 18:00N 40°50' W 073°58'4 7.2
2017-Sep-20 17:30N 40°47' W 073°60'4 7.6
2017-Sep-20 17:00N 40°43' W 074°01'4 7.9
2017-Sep-20 16:31N 40°40' W 074°03'3 6.5
2017-Sep-20 15:58N 40°38' W 074°08'0 0.0
2017-Sep-20 15:28N 40°38' W 074°08'0 0.0
2017-Sep-20 14:58N 40°38' W 074°08'0 0.0
2017-Sep-20 13:55N 40°38' W 074°08'0 0.0
2017-Sep-20 13:25N 40°38' W 074°08'0 0.0
2017-Sep-20 12:58N 40°38' W 074°08'0 0.9
2017-Sep-20 12:31N 40°39' W 074°07'1 1.2
2017-Sep-20 11:47N 40°39' W 074°06'1 3.5
2017-Sep-20 11:25N 40°38' W 074°08'0 0.0
2017-Sep-20 10:52N 40°38' W 074°08'0 0.0
2017-Sep-20 10:28N 40°38' W 074°08'0 0.0
2017-Sep-20 09:52N 40°38' W 074°08'0 0.0
2017-Sep-20 09:28N 40°38' W 074°08'2 3.9
2017-Sep-20 09:00N 40°39' W 074°05'0 0.0
2017-Sep-20 08:28N 40°39' W 074°05'2 3.9
2017-Sep-20 08:00N 40°38' W 074°08'0 0.0
2017-Sep-20 07:30N 40°38' W 074°08'0 0.0
2017-Sep-20 07:00N 40°38' W 074°08'0 0.0
2017-Sep-20 06:30N 40°38' W 074°08'0 0.0
2017-Sep-20 06:00N 40°38' W 074°08'0 0.0
2017-Sep-20 05:30N 40°38' W 074°08'0 0.0
2017-Sep-20 05:00N 40°38' W 074°08'0 0.0
2017-Sep-20 04:30N 40°38' W 074°08'0 0.0
2017-Sep-20 03:57N 40°38' W 074°08'0 0.0
2017-Sep-20 03:30N 40°38' W 074°08'0 0.0
2017-Sep-20 03:00N 40°38' W 074°08'0 0.0
2017-Sep-20 02:30N 40°38' W 074°08'0 0.0
2017-Sep-20 02:00N 40°38' W 074°08'6 1.3
2017-Sep-19 21:45N 40°34' W 074°13'210.0
2017-Sep-19 21:30N 40°37' W 074°12'4 7.5
2017-Sep-19 21:00N 40°39' W 074°08'4 8.1
2017-Sep-19 20:30N 40°40' W 074°03'510.8
2017-Sep-19 20:00N 40°44' W 073°58'2 3.3
2017-Sep-19 19:28N 40°46' W 073°57'0 0.0
2017-Sep-19 18:55N 40°46' W 073°57'0 0.0
2017-Sep-19 18:28N 40°46' W 073°57'0 0.0
2017-Sep-19 17:58N 40°46' W 073°57'0 0.0
2017-Sep-19 17:28N 40°46' W 073°57'0 0.0
2017-Sep-19 16:55N 40°46' W 073°57'0 0.0
2017-Sep-19 16:28N 40°46' W 073°57'0 0.0
2017-Sep-19 15:58N 40°46' W 073°57'0 0.0
2017-Sep-19 15:28N 40°46' W 073°57'0 0.0
2017-Sep-19 14:49N 40°46' W 073°57'0 0.0
2017-Sep-19 14:28N 40°46' W 073°57'0 0.0
2017-Sep-19 13:58N 40°46' W 073°57'0 0.0
2017-Sep-19 13:28N 40°46' W 073°57'0 0.0
2017-Sep-19 12:46N 40°46' W 073°57'1 2.9
2017-Sep-19 12:30N 40°45' W 073°58'611.7
2017-Sep-19 12:00N 40°40' W 074°02'5 3.3
2017-Sep-19 10:35N 40°38' W 074°08'0 0.0
2017-Sep-19 08:53N 40°38' W 074°08'0 0.0
2017-Sep-19 08:29N 40°38' W 074°08'0 0.0
2017-Sep-19 07:47N 40°38' W 074°08'0 0.0
2017-Sep-19 07:29N 40°38' W 074°08'0 0.0
2017-Sep-19 06:41N 40°38' W 074°08'0 0.0
2017-Sep-19 06:17N 40°38' W 074°08'0 0.0
2017-Sep-19 05:56N 40°38' W 074°08'0 0.0
2017-Sep-19 03:29N 40°38' W 074°08'4 8.9
2017-Sep-19 03:00N 40°40' W 074°03'611.3
2017-Sep-19 02:30N 40°46' W 074°00'0 0.7
2017-Sep-19 01:57N 40°46' W 073°60'0 1.0
2017-Sep-19 01:30N 40°46' W 074°00'1 2.9
2017-Sep-19 00:59N 40°44' W 074°01'0 0.2
2017-Sep-19 00:30N 40°44' W 074°01'0 0.0
2017-Sep-19 00:00N 40°44' W 074°01'2 3.4
2017-Sep-18 23:31N 40°43' W 074°01'510.5
2017-Sep-18 22:59N 40°39' W 074°06'1 2.3
2017-Sep-18 22:28N 40°38' W 074°08'0 0.0
2017-Sep-18 21:18N 40°38' W 074°08'3 3.6
2017-Sep-18 20:29N 40°41' W 074°08'0 0.2
2017-Sep-18 19:57N 40°41' W 074°08'3 5.5
2017-Sep-18 19:28N 40°39' W 074°09'1 2.0
2017-Sep-18 18:59N 40°38' W 074°08'0 0.0
2017-Sep-18 18:17N 40°38' W 074°08'0 0.0
2017-Sep-18 17:59N 40°38' W 074°08'1 2.3
2017-Sep-18 17:30N 40°39' W 074°07'0 0.4
2017-Sep-18 17:00N 40°39' W 074°06'0 0.2
2017-Sep-18 16:30N 40°39' W 074°06'1 1.8
2017-Sep-18 15:50N 40°38' W 074°08'0 0.0
2017-Sep-18 15:26N 40°38' W 074°08'0 0.0
2017-Sep-18 14:53N 40°38' W 074°08'0 0.0
2017-Sep-18 14:14N 40°38' W 074°08'0 0.0
2017-Sep-18 13:55N 40°38' W 074°08'0 0.0
2017-Sep-18 13:25N 40°38' W 074°08'4 2.1
2017-Sep-18 11:29N 40°36' W 074°12'2 4.9
2017-Sep-18 11:00N 40°38' W 074°12'3 5.9
2017-Sep-18 10:30N 40°39' W 074°08'3 5.9
2017-Sep-18 09:59N 40°38' W 074°12'3 1.8
2017-Sep-18 08:17N 40°35' W 074°12'1 3.7
2017-Sep-18 08:00N 40°36' W 074°12'0 0.1
2017-Sep-18 07:26N 40°37' W 074°12'3 0.2
2017-Sep-17 18:26N 40°34' W 074°13'4 4.7
2017-Sep-17 17:38N 40°38' W 074°12'1 7.1
2017-Sep-17 17:30N 40°38' W 074°12'3 0.1
2017-Sep-16 21:11N 40°38' W 074°08'0 0.0
2017-Sep-16 20:53N 40°38' W 074°08'0 0.0
2017-Sep-16 16:59N 40°38' W 074°08'0 0.0
2017-Sep-16 16:23N 40°38' W 074°08'0 0.0
2017-Sep-16 15:53N 40°38' W 074°08'0 0.0
2017-Sep-16 15:29N 40°38' W 074°08'0 0.0
2017-Sep-16 14:53N 40°38' W 074°08'0 0.0
2017-Sep-16 14:29N 40°38' W 074°08'0 0.0
2017-Sep-16 13:59N 40°38' W 074°08'0 0.0
2017-Sep-16 13:29N 40°38' W 074°08'0 0.0
2017-Sep-16 12:59N 40°38' W 074°08'0 0.0
2017-Sep-16 12:11N 40°38' W 074°08'0 0.0
2017-Sep-16 11:44N 40°38' W 074°08'0 0.0
2017-Sep-16 11:29N 40°38' W 074°08'0 0.0
2017-Sep-16 10:59N 40°38' W 074°08'0 0.0
2017-Sep-16 10:29N 40°38' W 074°08'0 0.0
2017-Sep-16 09:47N 40°38' W 074°08'2 7.0
2017-Sep-16 09:30N 40°39' W 074°05'0 0.5
2017-Sep-16 08:58N 40°39' W 074°05'2 3.9
2017-Sep-16 08:31N 40°40' W 074°03'0 0.9
2017-Sep-16 08:00N 40°40' W 074°02'0 0.0
2017-Sep-16 07:30N 40°40' W 074°02'0 0.1
2017-Sep-16 07:00N 40°40' W 074°02'0 0.1
2017-Sep-16 06:30N 40°40' W 074°02'0 0.1
2017-Sep-16 06:00N 40°40' W 074°02'0 0.3
2017-Sep-16 05:29N 40°40' W 074°03'1 2.9
2017-Sep-16 05:00N 40°39' W 074°04'4 8.6
2017-Sep-16 04:30N 40°39' W 074°10'4 1.4
2017-Sep-16 01:56N 40°36' W 074°12'4 8.4
2017-Sep-16 01:31N 40°39' W 074°10'5 9.7
2017-Sep-16 01:00N 40°39' W 074°04'1 2.4
2017-Sep-16 00:28N 40°40' W 074°02'1 2.0
2017-Sep-15 23:56N 40°39' W 074°03'2 5.4
2017-Sep-15 23:30N 40°39' W 074°06'4 8.8
2017-Sep-15 22:59N 40°38' W 074°12'1 1.3
2017-Sep-15 22:28N 40°38' W 074°12'0 0.1
2017-Sep-15 21:54N 40°38' W 074°12'0 0.3
2017-Sep-15 21:10N 40°38' W 074°12'0 0.0
2017-Sep-15 20:58N 40°38' W 074°12'2 4.6
2017-Sep-15 20:30N 40°39' W 074°10'2 2.9
2017-Sep-15 19:58N 40°38' W 074°08'0 0.0
2017-Sep-15 19:13N 40°38' W 074°08'0 0.0
2017-Sep-15 17:25N 40°38' W 074°08'0 0.0
2017-Sep-15 15:10N 40°38' W 074°08'0 0.0
2017-Sep-15 14:58N 40°38' W 074°08'0 0.0
2017-Sep-15 13:58N 40°38' W 074°08'0 0.0
2017-Sep-15 12:22N 40°38' W 074°08'0 0.0
2017-Sep-15 11:58N 40°38' W 074°08'0 0.0
2017-Sep-15 11:28N 40°38' W 074°08'0 0.0
2017-Sep-15 10:58N 40°38' W 074°08'0 0.0
2017-Sep-15 10:28N 40°38' W 074°08'0 0.0
2017-Sep-15 09:49N 40°38' W 074°08'0 0.0
2017-Sep-15 09:07N 40°38' W 074°08'0 0.0
2017-Sep-15 08:58N 40°38' W 074°08'0 0.0
2017-Sep-15 08:28N 40°38' W 074°08'0 0.0
2017-Sep-15 07:58N 40°38' W 074°08'0 0.0
2017-Sep-15 06:01N 40°38' W 074°08'0 0.1
2017-Sep-15 05:58N 40°38' W 074°08'0 0.0
2017-Sep-15 05:25N 40°38' W 074°08'0 0.0
2017-Sep-15 04:55N 40°38' W 074°08'0 0.0
2017-Sep-15 03:49N 40°38' W 074°08'0 0.1
2017-Sep-15 03:29N 40°38' W 074°08'4 7.9
2017-Sep-15 03:00N 40°42' W 074°07'1 1.1
2017-Sep-15 02:28N 40°43' W 074°07'0 0.1
2017-Sep-15 01:58N 40°43' W 074°07'1 2.9
2017-Sep-15 01:31N 40°41' W 074°08'5 9.5
2017-Sep-15 01:01N 40°38' W 074°12'4 1.6
2017-Sep-14 22:39N 40°34' W 074°13'1 6.6
2017-Sep-14 22:30N 40°35' W 074°12'3 6.2
2017-Sep-14 22:00N 40°38' W 074°12'4 7.8
2017-Sep-14 21:30N 40°39' W 074°06'0 0.5
2017-Sep-14 20:45N 40°39' W 074°06'1 0.4
2017-Sep-14 17:20N 40°38' W 074°08'0 0.0
2017-Sep-14 16:59N 40°38' W 074°08'0 0.0
2017-Sep-14 16:20N 40°38' W 074°08'0 0.0
2017-Sep-14 12:57N 40°38' W 074°08'3 7.0
2017-Sep-14 12:30N 40°38' W 074°04'1 1.5
2017-Sep-14 11:39N 40°37' W 074°03'0 0.9
2017-Sep-14 11:29N 40°37' W 074°03'1 1.5
2017-Sep-14 11:01N 40°37' W 074°03'2 3.1
2017-Sep-14 10:30N 40°39' W 074°03'  

Dump ship's entire track history